sensor_id;sensor_type;location;lat;lon;timestamp;temperature;humidity
17815;DHT22;9031;50.974;11.330;2023-03-01T00:00:13;-3.00;90.10
17815;DHT22;9031;50.974;11.330;2023-03-01T00:02:38;-3.00;90.00
17815;DHT22;9031;50.974;11.330;2023-03-01T00:05:04;-2.80;89.80
17815;DHT22;9031;50.974;11.330;2023-03-01T00:07:30;-2.90;89.00
17815;DHT22;9031;50.974;11.330;2023-03-01T00:09:55;-2.90;89.60
17815;DHT22;9031;50.974;11.330;2023-03-01T00:12:21;-3.00;89.50
17815;DHT22;9031;50.974;11.330;2023-03-01T00:14:46;-3.10;90.60
17815;DHT22;9031;50.974;11.330;2023-03-01T00:17:12;-3.00;90.20
17815;DHT22;9031;50.974;11.330;2023-03-01T00:19:37;-3.10;90.10
17815;DHT22;9031;50.974;11.330;2023-03-01T00:22:03;-2.90;89.60
17815;DHT22;9031;50.974;11.330;2023-03-01T00:24:28;-2.80;89.20
17815;DHT22;9031;50.974;11.330;2023-03-01T00:26:54;-2.90;89.40
17815;DHT22;9031;50.974;11.330;2023-03-01T00:29:24;-3.00;89.50
17815;DHT22;9031;50.974;11.330;2023-03-01T00:31:50;-3.10;89.70
17815;DHT22;9031;50.974;11.330;2023-03-01T00:34:15;-3.00;89.40
17815;DHT22;9031;50.974;11.330;2023-03-01T00:36:41;-3.30;90.10
17815;DHT22;9031;50.974;11.330;2023-03-01T00:39:11;-3.20;90.60
17815;DHT22;9031;50.974;11.330;2023-03-01T00:41:37;-3.30;90.20
17815;DHT22;9031;50.974;11.330;2023-03-01T00:44:03;-3.20;90.40
17815;DHT22;9031;50.974;11.330;2023-03-01T00:46:28;-3.20;90.00
17815;DHT22;9031;50.974;11.330;2023-03-01T00:48:55;-3.30;90.40
17815;DHT22;9031;50.974;11.330;2023-03-01T00:51:26;-3.20;90.50
17815;DHT22;9031;50.974;11.330;2023-03-01T00:53:54;-3.10;90.20
17815;DHT22;9031;50.974;11.330;2023-03-01T00:56:22;-3.10;90.10
17815;DHT22;9031;50.974;11.330;2023-03-01T00:58:47;-3.20;90.00
17815;DHT22;9031;50.974;11.330;2023-03-01T01:01:17;-3.20;90.20
17815;DHT22;9031;50.974;11.330;2023-03-01T01:03:51;-3.10;90.20
17815;DHT22;9031;50.974;11.330;2023-03-01T01:06:23;-3.00;90.00
17815;DHT22;9031;50.974;11.330;2023-03-01T01:08:49;-3.00;89.70
17815;DHT22;9031;50.974;11.330;2023-03-01T01:11:15;-3.30;89.70
17815;DHT22;9031;50.974;11.330;2023-03-01T01:13:43;-3.80;90.80
17815;DHT22;9031;50.974;11.330;2023-03-01T01:16:08;-3.90;91.40
17815;DHT22;9031;50.974;11.330;2023-03-01T01:18:34;-3.80;91.60
17815;DHT22;9031;50.974;11.330;2023-03-01T01:21:05;-3.60;91.10
17815;DHT22;9031;50.974;11.330;2023-03-01T01:23:31;-3.40;90.50
17815;DHT22;9031;50.974;11.330;2023-03-01T01:25:57;-3.40;90.50
17815;DHT22;9031;50.974;11.330;2023-03-01T01:28:22;-3.40;90.20
17815;DHT22;9031;50.974;11.330;2023-03-01T01:30:48;-3.40;90.30
17815;DHT22;9031;50.974;11.330;2023-03-01T01:33:13;-3.40;90.40
17815;DHT22;9031;50.974;11.330;2023-03-01T01:35:38;-3.20;90.20
17815;DHT22;9031;50.974;11.330;2023-03-01T01:38:04;-3.30;90.20
17815;DHT22;9031;50.974;11.330;2023-03-01T01:40:29;-3.30;90.60
17815;DHT22;9031;50.974;11.330;2023-03-01T01:42:55;-3.40;90.40
17815;DHT22;9031;50.974;11.330;2023-03-01T01:47:52;-3.70;90.90
17815;DHT22;9031;50.974;11.330;2023-03-01T01:50:19;-3.80;91.50
17815;DHT22;9031;50.974;11.330;2023-03-01T01:52:45;-3.90;91.50
17815;DHT22;9031;50.974;11.330;2023-03-01T01:55:17;-4.00;91.60
17815;DHT22;9031;50.974;11.330;2023-03-01T01:57:49;-4.00;92.30
17815;DHT22;9031;50.974;11.330;2023-03-01T02:00:18;-4.10;91.60
17815;DHT22;9031;50.974;11.330;2023-03-01T02:02:46;-4.10;91.80
17815;DHT22;9031;50.974;11.330;2023-03-01T02:05:34;-3.90;91.60
17815;DHT22;9031;50.974;11.330;2023-03-01T02:08:02;-3.90;91.40
17815;DHT22;9031;50.974;11.330;2023-03-01T02:10:28;-3.90;91.50
17815;DHT22;9031;50.974;11.330;2023-03-01T02:12:54;-3.90;91.40
17815;DHT22;9031;50.974;11.330;2023-03-01T02:15:22;-3.90;91.20
17815;DHT22;9031;50.974;11.330;2023-03-01T02:17:48;-3.70;91.00
17815;DHT22;9031;50.974;11.330;2023-03-01T02:20:26;-3.70;90.80
17815;DHT22;9031;50.974;11.330;2023-03-01T02:22:53;-3.70;90.90
17815;DHT22;9031;50.974;11.330;2023-03-01T02:26:40;-3.60;90.50
17815;DHT22;9031;50.974;11.330;2023-03-01T02:28:35;-3.70;90.40
17815;DHT22;9031;50.974;11.330;2023-03-01T02:31:02;-3.70;90.40
17815;DHT22;9031;50.974;11.330;2023-03-01T02:33:47;-3.80;90.60
17815;DHT22;9031;50.974;11.330;2023-03-01T02:36:20;-3.80;90.80
17815;DHT22;9031;50.974;11.330;2023-03-01T02:38:48;-3.70;90.50
17815;DHT22;9031;50.974;11.330;2023-03-01T02:41:16;-3.70;90.60
17815;DHT22;9031;50.974;11.330;2023-03-01T02:43:43;-3.60;90.10
17815;DHT22;9031;50.974;11.330;2023-03-01T02:46:18;-3.70;90.40
17815;DHT22;9031;50.974;11.330;2023-03-01T02:48:47;-3.70;90.60
17815;DHT22;9031;50.974;11.330;2023-03-01T02:51:27;-3.70;90.80
17815;DHT22;9031;50.974;11.330;2023-03-01T02:54:19;-3.60;90.30
17815;DHT22;9031;50.974;11.330;2023-03-01T02:56:47;-3.60;90.20
17815;DHT22;9031;50.974;11.330;2023-03-01T02:59:19;-3.60;90.20
17815;DHT22;9031;50.974;11.330;2023-03-01T03:01:45;-3.70;91.00
17815;DHT22;9031;50.974;11.330;2023-03-01T03:04:14;-3.70;90.50
17815;DHT22;9031;50.974;11.330;2023-03-01T03:06:44;-3.80;90.80
17815;DHT22;9031;50.974;11.330;2023-03-01T03:09:11;-3.80;90.80
17815;DHT22;9031;50.974;11.330;2023-03-01T03:11:36;-3.80;90.50
17815;DHT22;9031;50.974;11.330;2023-03-01T03:14:04;-3.90;90.90
17815;DHT22;9031;50.974;11.330;2023-03-01T03:16:30;-4.00;90.60
17815;DHT22;9031;50.974;11.330;2023-03-01T03:18:55;-4.10;91.00
17815;DHT22;9031;50.974;11.330;2023-03-01T03:21:31;-4.10;90.80
17815;DHT22;9031;50.974;11.330;2023-03-01T03:23:57;-4.20;91.10
17815;DHT22;9031;50.974;11.330;2023-03-01T03:26:23;-4.10;90.80
17815;DHT22;9031;50.974;11.330;2023-03-01T03:28:48;-4.10;90.80
17815;DHT22;9031;50.974;11.330;2023-03-01T03:31:14;-4.10;90.80
17815;DHT22;9031;50.974;11.330;2023-03-01T03:33:39;-4.10;90.80
17815;DHT22;9031;50.974;11.330;2023-03-01T03:36:05;-4.00;90.60
17815;DHT22;9031;50.974;11.330;2023-03-01T03:38:31;-4.10;90.70
17815;DHT22;9031;50.974;11.330;2023-03-01T03:41:05;-4.30;90.80
17815;DHT22;9031;50.974;11.330;2023-03-01T03:43:33;-4.20;90.80
17815;DHT22;9031;50.974;11.330;2023-03-01T03:45:59;-4.20;90.80
17815;DHT22;9031;50.974;11.330;2023-03-01T03:48:26;-4.20;90.70
17815;DHT22;9031;50.974;11.330;2023-03-01T03:50:54;-4.10;90.50
17815;DHT22;9031;50.974;11.330;2023-03-01T03:53:21;-4.00;90.50
17815;DHT22;9031;50.974;11.330;2023-03-01T03:55:47;-4.00;90.20
17815;DHT22;9031;50.974;11.330;2023-03-01T03:58:15;-4.00;90.30
17815;DHT22;9031;50.974;11.330;2023-03-01T04:00:43;-4.10;90.20
17815;DHT22;9031;50.974;11.330;2023-03-01T04:03:10;-4.20;90.80
17815;DHT22;9031;50.974;11.330;2023-03-01T04:05:36;-4.30;90.60
17815;DHT22;9031;50.974;11.330;2023-03-01T04:08:02;-4.40;90.50
17815;DHT22;9031;50.974;11.330;2023-03-01T04:10:30;-4.50;90.90
17815;DHT22;9031;50.974;11.330;2023-03-01T04:12:56;-4.40;91.00
17815;DHT22;9031;50.974;11.330;2023-03-01T04:15:23;-4.40;90.90
17815;DHT22;9031;50.974;11.330;2023-03-01T04:17:50;-4.50;90.70
17815;DHT22;9031;50.974;11.330;2023-03-01T04:20:19;-4.50;90.90
17815;DHT22;9031;50.974;11.330;2023-03-01T04:25:40;-4.60;90.80
17815;DHT22;9031;50.974;11.330;2023-03-01T04:28:07;-4.70;91.10
17815;DHT22;9031;50.974;11.330;2023-03-01T04:30:32;-5.20;92.00
17815;DHT22;9031;50.974;11.330;2023-03-01T04:33:08;-5.20;92.50
17815;DHT22;9031;50.974;11.330;2023-03-01T04:35:34;-5.00;92.30
17815;DHT22;9031;50.974;11.330;2023-03-01T04:38:01;-4.90;92.00
17815;DHT22;9031;50.974;11.330;2023-03-01T04:40:26;-5.00;92.10
17815;DHT22;9031;50.974;11.330;2023-03-01T04:42:52;-5.10;92.10
17815;DHT22;9031;50.974;11.330;2023-03-01T04:45:18;-5.20;92.10
17815;DHT22;9031;50.974;11.330;2023-03-01T04:47:45;-5.40;92.20
17815;DHT22;9031;50.974;11.330;2023-03-01T04:50:12;-5.50;93.00
17815;DHT22;9031;50.974;11.330;2023-03-01T04:52:38;-5.30;92.60
17815;DHT22;9031;50.974;11.330;2023-03-01T04:55:04;-5.40;92.40
17815;DHT22;9031;50.974;11.330;2023-03-01T04:57:30;-5.60;92.80
17815;DHT22;9031;50.974;11.330;2023-03-01T04:59:56;-5.50;92.90
17815;DHT22;9031;50.974;11.330;2023-03-01T05:02:22;-5.60;92.90
17815;DHT22;9031;50.974;11.330;2023-03-01T05:04:47;-5.50;92.90
17815;DHT22;9031;50.974;11.330;2023-03-01T05:07:13;-5.40;92.70
17815;DHT22;9031;50.974;11.330;2023-03-01T05:09:45;-5.30;92.70
17815;DHT22;9031;50.974;11.330;2023-03-01T05:12:12;-5.50;92.60
17815;DHT22;9031;50.974;11.330;2023-03-01T05:14:37;-5.40;92.80
17815;DHT22;9031;50.974;11.330;2023-03-01T05:17:03;-5.40;92.70
17815;DHT22;9031;50.974;11.330;2023-03-01T05:19:30;-5.30;92.60
17815;DHT22;9031;50.974;11.330;2023-03-01T05:21:56;-5.30;92.20
17815;DHT22;9031;50.974;11.330;2023-03-01T05:24:33;-5.20;92.00
17815;DHT22;9031;50.974;11.330;2023-03-01T05:26:59;-5.20;91.60
17815;DHT22;9031;50.974;11.330;2023-03-01T05:29:26;-5.30;92.20
17815;DHT22;9031;50.974;11.330;2023-03-01T05:31:57;-5.10;91.80
17815;DHT22;9031;50.974;11.330;2023-03-01T05:34:42;-5.20;91.70
17815;DHT22;9031;50.974;11.330;2023-03-01T05:37:08;-5.20;91.80
17815;DHT22;9031;50.974;11.330;2023-03-01T05:39:34;-5.10;91.80
17815;DHT22;9031;50.974;11.330;2023-03-01T05:42:01;-5.00;91.80
17815;DHT22;9031;50.974;11.330;2023-03-01T05:44:28;-4.90;91.30
17815;DHT22;9031;50.974;11.330;2023-03-01T05:46:54;-4.90;91.10
17815;DHT22;9031;50.974;11.330;2023-03-01T05:49:21;-4.80;90.90
17815;DHT22;9031;50.974;11.330;2023-03-01T05:51:51;-4.70;90.60
17815;DHT22;9031;50.974;11.330;2023-03-01T05:54:18;-5.10;91.30
17815;DHT22;9031;50.974;11.330;2023-03-01T05:56:44;-5.10;91.30
17815;DHT22;9031;50.974;11.330;2023-03-01T05:59:10;-5.40;91.40
17815;DHT22;9031;50.974;11.330;2023-03-01T06:01:37;-5.40;91.40
17815;DHT22;9031;50.974;11.330;2023-03-01T06:04:03;-5.60;92.00
17815;DHT22;9031;50.974;11.330;2023-03-01T06:06:29;-5.60;92.10
17815;DHT22;9031;50.974;11.330;2023-03-01T06:08:55;-5.60;92.20
17815;DHT22;9031;50.974;11.330;2023-03-01T06:11:21;-5.70;92.30
17815;DHT22;9031;50.974;11.330;2023-03-01T06:13:47;-5.70;92.30
17815;DHT22;9031;50.974;11.330;2023-03-01T06:16:13;-5.80;92.40
17815;DHT22;9031;50.974;11.330;2023-03-01T06:18:39;-5.80;92.60
17815;DHT22;9031;50.974;11.330;2023-03-01T06:21:06;-5.80;92.60
17815;DHT22;9031;50.974;11.330;2023-03-01T06:23:32;-5.70;92.70
17815;DHT22;9031;50.974;11.330;2023-03-01T06:25:58;-5.50;92.30
17815;DHT22;9031;50.974;11.330;2023-03-01T06:28:23;-5.40;91.90
17815;DHT22;9031;50.974;11.330;2023-03-01T06:30:49;-5.30;91.60
17815;DHT22;9031;50.974;11.330;2023-03-01T06:33:15;-5.30;91.50
17815;DHT22;9031;50.974;11.330;2023-03-01T06:35:40;-5.30;91.30
17815;DHT22;9031;50.974;11.330;2023-03-01T06:38:06;-5.50;91.80
17815;DHT22;9031;50.974;11.330;2023-03-01T06:40:32;-5.40;92.10
17815;DHT22;9031;50.974;11.330;2023-03-01T06:42:58;-5.30;91.80
17815;DHT22;9031;50.974;11.330;2023-03-01T06:45:23;-5.20;92.00
17815;DHT22;9031;50.974;11.330;2023-03-01T06:47:49;-5.40;91.50
17815;DHT22;9031;50.974;11.330;2023-03-01T06:50:16;-5.40;92.10
17815;DHT22;9031;50.974;11.330;2023-03-01T06:52:42;-5.30;92.20
17815;DHT22;9031;50.974;11.330;2023-03-01T06:55:11;-5.00;91.80
17815;DHT22;9031;50.974;11.330;2023-03-01T06:57:36;-4.80;91.70
17815;DHT22;9031;50.974;11.330;2023-03-01T07:00:04;-4.70;90.90
17815;DHT22;9031;50.974;11.330;2023-03-01T07:02:30;-4.90;91.30
17815;DHT22;9031;50.974;11.330;2023-03-01T07:04:55;-4.80;91.50
17815;DHT22;9031;50.974;11.330;2023-03-01T07:07:21;-4.60;91.20
17815;DHT22;9031;50.974;11.330;2023-03-01T07:09:48;-4.50;91.30
17815;DHT22;9031;50.974;11.330;2023-03-01T07:12:14;-4.10;90.80
17815;DHT22;9031;50.974;11.330;2023-03-01T07:14:40;-4.00;90.50
17815;DHT22;9031;50.974;11.330;2023-03-01T07:17:05;-4.10;90.50
17815;DHT22;9031;50.974;11.330;2023-03-01T07:19:31;-3.90;90.50
17815;DHT22;9031;50.974;11.330;2023-03-01T07:21:57;-3.50;90.20
17815;DHT22;9031;50.974;11.330;2023-03-01T07:24:23;-3.50;88.90
17815;DHT22;9031;50.974;11.330;2023-03-01T07:26:49;-3.50;89.70
17815;DHT22;9031;50.974;11.330;2023-03-01T07:29:16;-3.50;89.30
17815;DHT22;9031;50.974;11.330;2023-03-01T07:31:41;-3.30;89.70
17815;DHT22;9031;50.974;11.330;2023-03-01T07:34:07;-3.10;89.30
17815;DHT22;9031;50.974;11.330;2023-03-01T07:36:32;-3.20;89.10
17815;DHT22;9031;50.974;11.330;2023-03-01T07:38:58;-2.90;89.60
17815;DHT22;9031;50.974;11.330;2023-03-01T07:41:23;-2.60;88.80
17815;DHT22;9031;50.974;11.330;2023-03-01T07:43:49;-2.40;87.60
17815;DHT22;9031;50.974;11.330;2023-03-01T07:46:15;-2.10;87.80
17815;DHT22;9031;50.974;11.330;2023-03-01T07:48:40;-1.90;85.70
17815;DHT22;9031;50.974;11.330;2023-03-01T07:51:06;-1.80;85.40
17815;DHT22;9031;50.974;11.330;2023-03-01T07:53:33;-1.70;86.30
17815;DHT22;9031;50.974;11.330;2023-03-01T07:58:30;-1.40;85.30
17815;DHT22;9031;50.974;11.330;2023-03-01T08:00:57;-1.10;84.10
17815;DHT22;9031;50.974;11.330;2023-03-01T08:03:25;-1.20;84.60
17815;DHT22;9031;50.974;11.330;2023-03-01T08:05:51;-0.90;83.00
17815;DHT22;9031;50.974;11.330;2023-03-01T08:08:16;-0.80;82.70
17815;DHT22;9031;50.974;11.330;2023-03-01T08:10:42;-0.50;81.90
17815;DHT22;9031;50.974;11.330;2023-03-01T08:13:07;-0.40;80.30
17815;DHT22;9031;50.974;11.330;2023-03-01T08:15:33;-0.20;80.20
17815;DHT22;9031;50.974;11.330;2023-03-01T08:17:58;-0.30;79.70
17815;DHT22;9031;50.974;11.330;2023-03-01T08:20:24;-0.20;79.40
17815;DHT22;9031;50.974;11.330;2023-03-01T08:22:49;-0.10;80.20
17815;DHT22;9031;50.974;11.330;2023-03-01T08:25:15;-0.20;79.60
17815;DHT22;9031;50.974;11.330;2023-03-01T08:27:40;-0.10;79.80
17815;DHT22;9031;50.974;11.330;2023-03-01T08:30:06;0.00;79.90
17815;DHT22;9031;50.974;11.330;2023-03-01T08:32:38;0.40;78.20
17815;DHT22;9031;50.974;11.330;2023-03-01T08:35:04;0.60;77.20
17815;DHT22;9031;50.974;11.330;2023-03-01T08:37:30;0.90;75.80
17815;DHT22;9031;50.974;11.330;2023-03-01T08:39:58;0.80;76.40
17815;DHT22;9031;50.974;11.330;2023-03-01T08:42:23;0.80;75.20
17815;DHT22;9031;50.974;11.330;2023-03-01T08:44:49;1.10;74.80
17815;DHT22;9031;50.974;11.330;2023-03-01T08:47:14;1.20;75.20
17815;DHT22;9031;50.974;11.330;2023-03-01T08:49:40;1.40;73.80
17815;DHT22;9031;50.974;11.330;2023-03-01T08:52:05;1.20;74.30
17815;DHT22;9031;50.974;11.330;2023-03-01T08:54:31;1.50;74.10
17815;DHT22;9031;50.974;11.330;2023-03-01T08:56:56;1.50;73.20
17815;DHT22;9031;50.974;11.330;2023-03-01T08:59:25;1.50;73.60
17815;DHT22;9031;50.974;11.330;2023-03-01T09:01:50;1.70;73.40
17815;DHT22;9031;50.974;11.330;2023-03-01T09:04:16;1.80;72.90
17815;DHT22;9031;50.974;11.330;2023-03-01T09:06:42;1.50;73.20
17815;DHT22;9031;50.974;11.330;2023-03-01T09:09:13;1.80;73.50
17815;DHT22;9031;50.974;11.330;2023-03-01T09:11:40;2.10;72.20
17815;DHT22;9031;50.974;11.330;2023-03-01T09:14:06;2.20;72.40
17815;DHT22;9031;50.974;11.330;2023-03-01T09:16:31;2.10;71.90
17815;DHT22;9031;50.974;11.330;2023-03-01T09:19:01;2.40;71.60
17815;DHT22;9031;50.974;11.330;2023-03-01T09:21:27;2.70;70.50
17815;DHT22;9031;50.974;11.330;2023-03-01T09:23:52;2.80;69.60
17815;DHT22;9031;50.974;11.330;2023-03-01T09:26:20;2.90;68.30
17815;DHT22;9031;50.974;11.330;2023-03-01T09:28:47;3.00;68.50
17815;DHT22;9031;50.974;11.330;2023-03-01T09:31:15;3.20;68.50
17815;DHT22;9031;50.974;11.330;2023-03-01T09:33:41;3.50;66.40
17815;DHT22;9031;50.974;11.330;2023-03-01T09:36:11;3.40;67.20
17815;DHT22;9031;50.974;11.330;2023-03-01T09:38:37;3.50;67.10
17815;DHT22;9031;50.974;11.330;2023-03-01T09:41:22;3.40;66.80
17815;DHT22;9031;50.974;11.330;2023-03-01T09:43:55;3.20;66.60
17815;DHT22;9031;50.974;11.330;2023-03-01T09:46:24;3.30;66.00
17815;DHT22;9031;50.974;11.330;2023-03-01T09:48:56;3.20;66.80
17815;DHT22;9031;50.974;11.330;2023-03-01T09:51:34;3.20;66.40
17815;DHT22;9031;50.974;11.330;2023-03-01T09:54:02;3.40;67.00
17815;DHT22;9031;50.974;11.330;2023-03-01T09:59:25;3.80;64.80
17815;DHT22;9031;50.974;11.330;2023-03-01T10:02:01;3.70;65.10
17815;DHT22;9031;50.974;11.330;2023-03-01T10:04:51;4.10;64.60
17815;DHT22;9031;50.974;11.330;2023-03-01T10:07:32;3.90;62.80
17815;DHT22;9031;50.974;11.330;2023-03-01T10:10:05;4.00;63.50
17815;DHT22;9031;50.974;11.330;2023-03-01T10:12:35;4.70;61.40
17815;DHT22;9031;50.974;11.330;2023-03-01T10:15:14;4.90;59.60
17815;DHT22;9031;50.974;11.330;2023-03-01T10:22:46;6.30;55.90
17815;DHT22;9031;50.974;11.330;2023-03-01T10:25:17;6.00;55.40
17815;DHT22;9031;50.974;11.330;2023-03-01T10:27:54;5.90;55.80
17815;DHT22;9031;50.974;11.330;2023-03-01T10:30:37;6.60;54.50
17815;DHT22;9031;50.974;11.330;2023-03-01T10:33:32;7.90;51.30
17815;DHT22;9031;50.974;11.330;2023-03-01T10:35:58;7.30;50.80
17815;DHT22;9031;50.974;11.330;2023-03-01T10:38:24;7.80;51.00
17815;DHT22;9031;50.974;11.330;2023-03-01T10:41:04;8.60;48.30
17815;DHT22;9031;50.974;11.330;2023-03-01T10:43:49;9.60;45.60
17815;DHT22;9031;50.974;11.330;2023-03-01T10:46:27;9.30;45.90
17815;DHT22;9031;50.974;11.330;2023-03-01T10:49:07;9.80;43.80
17815;DHT22;9031;50.974;11.330;2023-03-01T10:51:33;9.70;45.20
17815;DHT22;9031;50.974;11.330;2023-03-01T10:53:58;9.60;44.40
17815;DHT22;9031;50.974;11.330;2023-03-01T10:56:24;11.30;41.70
17815;DHT22;9031;50.974;11.330;2023-03-01T10:58:58;13.40;38.40
17815;DHT22;9031;50.974;11.330;2023-03-01T11:01:28;12.10;37.30
17815;DHT22;9031;50.974;11.330;2023-03-01T11:04:12;11.80;38.80
17815;DHT22;9031;50.974;11.330;2023-03-01T11:06:40;13.30;37.40
17815;DHT22;9031;50.974;11.330;2023-03-01T11:11:44;15.20;33.30
17815;DHT22;9031;50.974;11.330;2023-03-01T11:14:17;15.20;32.50
17815;DHT22;9031;50.974;11.330;2023-03-01T11:16:45;14.80;33.60
17815;DHT22;9031;50.974;11.330;2023-03-01T11:21:43;14.40;33.50
17815;DHT22;9031;50.974;11.330;2023-03-01T11:24:13;14.90;33.40
17815;DHT22;9031;50.974;11.330;2023-03-01T11:26:42;14.00;34.20
17815;DHT22;9031;50.974;11.330;2023-03-01T11:29:21;15.40;32.60
17815;DHT22;9031;50.974;11.330;2023-03-01T11:31:51;15.40;32.20
17815;DHT22;9031;50.974;11.330;2023-03-01T11:34:28;15.00;33.60
17815;DHT22;9031;50.974;11.330;2023-03-01T11:36:59;14.00;34.20
17815;DHT22;9031;50.974;11.330;2023-03-01T11:39:38;15.50;33.20
17815;DHT22;9031;50.974;11.330;2023-03-01T11:42:28;15.50;33.40
17815;DHT22;9031;50.974;11.330;2023-03-01T11:44:55;15.20;32.30
17815;DHT22;9031;50.974;11.330;2023-03-01T11:50:08;15.80;32.90
17815;DHT22;9031;50.974;11.330;2023-03-01T11:55:30;15.10;34.00
17815;DHT22;9031;50.974;11.330;2023-03-01T12:03:13;15.20;32.40
17815;DHT22;9031;50.974;11.330;2023-03-01T12:08:41;17.80;29.20
17815;DHT22;9031;50.974;11.330;2023-03-01T12:14:11;16.10;29.80
17815;DHT22;9031;50.974;11.330;2023-03-01T12:16:53;14.80;33.70
17815;DHT22;9031;50.974;11.330;2023-03-01T12:22:49;14.30;34.70
17815;DHT22;9031;50.974;11.330;2023-03-01T12:25:28;16.30;32.10
17815;DHT22;9031;50.974;11.330;2023-03-01T12:28:18;17.20;30.00
17815;DHT22;9031;50.974;11.330;2023-03-01T12:33:35;16.20;32.30
17815;DHT22;9031;50.974;11.330;2023-03-01T12:41:43;15.10;33.20
17815;DHT22;9031;50.974;11.330;2023-03-01T12:44:48;14.70;34.20
17815;DHT22;9031;50.974;11.330;2023-03-01T12:49:57;14.20;34.10
17815;DHT22;9031;50.974;11.330;2023-03-01T12:52:30;16.00;32.30
17815;DHT22;9031;50.974;11.330;2023-03-01T12:54:58;14.70;33.40
17815;DHT22;9031;50.974;11.330;2023-03-01T12:57:39;15.80;32.20
17815;DHT22;9031;50.974;11.330;2023-03-01T13:00:26;15.20;32.30
17815;DHT22;9031;50.974;11.330;2023-03-01T13:05:48;16.10;31.30
17815;DHT22;9031;50.974;11.330;2023-03-01T13:11:01;16.40;30.00
17815;DHT22;9031;50.974;11.330;2023-03-01T13:13:28;17.50;29.40
17815;DHT22;9031;50.974;11.330;2023-03-01T13:15:55;16.40;29.70
17815;DHT22;9031;50.974;11.330;2023-03-01T13:20:52;16.60;29.30
17815;DHT22;9031;50.974;11.330;2023-03-01T13:30:59;15.60;32.10
17815;DHT22;9031;50.974;11.330;2023-03-01T13:33:49;15.90;30.70
17815;DHT22;9031;50.974;11.330;2023-03-01T13:39:02;13.60;33.60
17815;DHT22;9031;50.974;11.330;2023-03-01T13:46:59;12.10;36.70
17815;DHT22;9031;50.974;11.330;2023-03-01T13:52:02;10.00;42.20
17815;DHT22;9031;50.974;11.330;2023-03-01T13:54:31;9.20;44.00
17815;DHT22;9031;50.974;11.330;2023-03-01T13:56:58;9.20;45.70
17815;DHT22;9031;50.974;11.330;2023-03-01T13:59:24;9.40;44.80
17815;DHT22;9031;50.974;11.330;2023-03-01T14:01:57;8.70;44.70
17815;DHT22;9031;50.974;11.330;2023-03-01T14:06:51;8.40;47.30
17815;DHT22;9031;50.974;11.330;2023-03-01T14:09:25;9.00;45.30
17815;DHT22;9031;50.974;11.330;2023-03-01T14:19:47;11.00;39.90
17815;DHT22;9031;50.974;11.330;2023-03-01T14:22:34;11.10;39.30
17815;DHT22;9031;50.974;11.330;2023-03-01T14:25:29;10.50;40.80
17815;DHT22;9031;50.974;11.330;2023-03-01T14:30:42;9.00;43.90
17815;DHT22;9031;50.974;11.330;2023-03-01T14:36:00;8.00;47.90
17815;DHT22;9031;50.974;11.330;2023-03-01T14:38:33;8.10;48.10
17815;DHT22;9031;50.974;11.330;2023-03-01T14:41:03;8.60;47.40
17815;DHT22;9031;50.974;11.330;2023-03-01T14:43:29;7.90;47.60
17815;DHT22;9031;50.974;11.330;2023-03-01T14:45:56;7.60;49.40
17815;DHT22;9031;50.974;11.330;2023-03-01T14:48:22;8.00;48.80
17815;DHT22;9031;50.974;11.330;2023-03-01T14:50:48;7.90;49.10
17815;DHT22;9031;50.974;11.330;2023-03-01T14:53:21;7.70;49.60
17815;DHT22;9031;50.974;11.330;2023-03-01T14:55:51;7.90;48.80
17815;DHT22;9031;50.974;11.330;2023-03-01T14:58:20;8.60;47.90
17815;DHT22;9031;50.974;11.330;2023-03-01T15:00:55;8.50;48.40
17815;DHT22;9031;50.974;11.330;2023-03-01T15:03:35;8.50;48.20
17815;DHT22;9031;50.974;11.330;2023-03-01T15:06:05;8.30;47.80
17815;DHT22;9031;50.974;11.330;2023-03-01T15:08:32;7.80;48.80
17815;DHT22;9031;50.974;11.330;2023-03-01T15:13:48;7.50;49.30
17815;DHT22;9031;50.974;11.330;2023-03-01T15:16:21;7.10;51.40
17815;DHT22;9031;50.974;11.330;2023-03-01T15:21:33;7.60;50.00
17815;DHT22;9031;50.974;11.330;2023-03-01T15:29:22;7.40;50.80
17815;DHT22;9031;50.974;11.330;2023-03-01T15:32:23;7.60;50.20
17815;DHT22;9031;50.974;11.330;2023-03-01T15:34:50;7.20;51.40
17815;DHT22;9031;50.974;11.330;2023-03-01T15:37:39;6.90;51.60
17815;DHT22;9031;50.974;11.330;2023-03-01T15:40:26;6.90;51.60
17815;DHT22;9031;50.974;11.330;2023-03-01T15:42:57;6.80;51.50
17815;DHT22;9031;50.974;11.330;2023-03-01T15:45:25;6.60;52.40
17815;DHT22;9031;50.974;11.330;2023-03-01T15:47:57;6.70;52.40
17815;DHT22;9031;50.974;11.330;2023-03-01T15:50:31;6.90;52.20
17815;DHT22;9031;50.974;11.330;2023-03-01T15:53:00;6.40;52.00
17815;DHT22;9031;50.974;11.330;2023-03-01T15:55:28;6.20;52.50
17815;DHT22;9031;50.974;11.330;2023-03-01T15:58:04;6.20;52.50
17815;DHT22;9031;50.974;11.330;2023-03-01T16:00:32;6.00;51.90
17815;DHT22;9031;50.974;11.330;2023-03-01T16:02:58;6.30;52.40
17815;DHT22;9031;50.974;11.330;2023-03-01T16:05:32;6.20;52.50
17815;DHT22;9031;50.974;11.330;2023-03-01T16:07:58;6.00;52.00
17815;DHT22;9031;50.974;11.330;2023-03-01T16:10:24;5.70;52.70
17815;DHT22;9031;50.974;11.330;2023-03-01T16:12:51;5.70;53.90
17815;DHT22;9031;50.974;11.330;2023-03-01T16:15:24;5.30;53.70
17815;DHT22;9031;50.974;11.330;2023-03-01T16:17:50;5.10;54.80
17815;DHT22;9031;50.974;11.330;2023-03-01T16:20:16;4.90;55.30
17815;DHT22;9031;50.974;11.330;2023-03-01T16:22:43;4.50;55.90
17815;DHT22;9031;50.974;11.330;2023-03-01T16:25:14;4.40;56.50
17815;DHT22;9031;50.974;11.330;2023-03-01T16:27:42;4.40;57.00
17815;DHT22;9031;50.974;11.330;2023-03-01T16:30:09;4.30;57.30
17815;DHT22;9031;50.974;11.330;2023-03-01T16:32:38;4.20;57.60
17815;DHT22;9031;50.974;11.330;2023-03-01T16:35:05;4.20;57.90
17815;DHT22;9031;50.974;11.330;2023-03-01T16:37:32;4.10;58.40
17815;DHT22;9031;50.974;11.330;2023-03-01T16:39:58;4.20;58.50
17815;DHT22;9031;50.974;11.330;2023-03-01T16:42:23;4.10;58.10
17815;DHT22;9031;50.974;11.330;2023-03-01T16:44:54;4.00;58.20
17815;DHT22;9031;50.974;11.330;2023-03-01T16:47:20;3.80;59.00
17815;DHT22;9031;50.974;11.330;2023-03-01T16:49:46;3.80;58.70
17815;DHT22;9031;50.974;11.330;2023-03-01T16:52:11;3.70;59.30
17815;DHT22;9031;50.974;11.330;2023-03-01T16:54:37;3.60;59.30
17815;DHT22;9031;50.974;11.330;2023-03-01T16:57:02;3.60;60.30
17815;DHT22;9031;50.974;11.330;2023-03-01T16:59:28;3.50;59.90
17815;DHT22;9031;50.974;11.330;2023-03-01T17:01:53;3.70;59.90
17815;DHT22;9031;50.974;11.330;2023-03-01T17:04:19;3.60;60.00
17815;DHT22;9031;50.974;11.330;2023-03-01T17:06:44;3.60;60.30
17815;DHT22;9031;50.974;11.330;2023-03-01T17:09:12;3.40;61.20
17815;DHT22;9031;50.974;11.330;2023-03-01T17:11:37;3.40;61.60
17815;DHT22;9031;50.974;11.330;2023-03-01T17:14:03;3.30;62.40
17815;DHT22;9031;50.974;11.330;2023-03-01T17:16:28;3.20;62.80
17815;DHT22;9031;50.974;11.330;2023-03-01T17:18:54;3.20;63.00
17815;DHT22;9031;50.974;11.330;2023-03-01T17:21:20;3.10;62.50
17815;DHT22;9031;50.974;11.330;2023-03-01T17:23:46;2.90;64.10
17815;DHT22;9031;50.974;11.330;2023-03-01T17:26:12;3.00;64.50
17815;DHT22;9031;50.974;11.330;2023-03-01T17:28:38;2.90;64.90
17815;DHT22;9031;50.974;11.330;2023-03-01T17:31:05;2.90;65.00